sensor_id;sensor_type;location;lat;lon;timestamp;P1;durP1;ratioP1;P2;durP2;ratioP2
32780;SDS011;19136;47.032;15.502;2022-07-23T00:00:54;15.13;;;9.10;;
32780;SDS011;19136;47.032;15.502;2022-07-23T00:03:20;13.32;;;8.88;;
32780;SDS011;19136;47.032;15.502;2022-07-23T00:05:45;14.45;;;8.77;;
32780;SDS011;19136;47.032;15.502;2022-07-23T00:08:11;11.65;;;8.93;;
32780;SDS011;19136;47.032;15.502;2022-07-23T00:10:36;11.45;;;9.60;;
32780;SDS011;19136;47.032;15.502;2022-07-23T00:13:02;15.45;;;8.38;;
32780;SDS011;19136;47.032;15.502;2022-07-23T00:15:28;14.93;;;8.93;;
32780;SDS011;19136;47.032;15.502;2022-07-23T00:17:53;18.45;;;8.93;;
32780;SDS011;19136;47.032;15.502;2022-07-23T00:20:19;12.90;;;8.68;;
32780;SDS011;19136;47.032;15.502;2022-07-23T00:22:48;17.60;;;9.80;;
32780;SDS011;19136;47.032;15.502;2022-07-23T00:25:14;11.00;;;9.32;;
32780;SDS011;19136;47.032;15.502;2022-07-23T00:27:39;23.10;;;10.07;;
32780;SDS011;19136;47.032;15.502;2022-07-23T00:30:05;10.40;;;8.65;;
32780;SDS011;19136;47.032;15.502;2022-07-23T00:32:31;12.30;;;9.10;;
32780;SDS011;19136;47.032;15.502;2022-07-23T00:34:57;16.00;;;9.02;;
32780;SDS011;19136;47.032;15.502;2022-07-23T00:37:25;17.80;;;9.45;;
32780;SDS011;19136;47.032;15.502;2022-07-23T00:39:51;16.67;;;8.88;;
32780;SDS011;19136;47.032;15.502;2022-07-23T00:42:16;11.73;;;9.07;;
32780;SDS011;19136;47.032;15.502;2022-07-23T00:44:42;12.02;;;9.68;;
32780;SDS011;19136;47.032;15.502;2022-07-23T00:47:08;12.27;;;8.98;;
32780;SDS011;19136;47.032;15.502;2022-07-23T00:49:34;13.35;;;10.25;;
32780;SDS011;19136;47.032;15.502;2022-07-23T00:52:00;11.35;;;9.18;;
32780;SDS011;19136;47.032;15.502;2022-07-23T00:54:27;17.05;;;9.90;;
32780;SDS011;19136;47.032;15.502;2022-07-23T00:56:53;17.42;;;9.95;;
32780;SDS011;19136;47.032;15.502;2022-07-23T00:59:18;15.77;;;9.50;;
32780;SDS011;19136;47.032;15.502;2022-07-23T01:01:44;11.07;;;9.20;;
32780;SDS011;19136;47.032;15.502;2022-07-23T01:04:12;13.20;;;9.52;;
32780;SDS011;19136;47.032;15.502;2022-07-23T01:06:40;14.77;;;9.13;;
32780;SDS011;19136;47.032;15.502;2022-07-23T01:09:06;11.10;;;9.15;;
32780;SDS011;19136;47.032;15.502;2022-07-23T01:11:35;16.92;;;9.65;;
32780;SDS011;19136;47.032;15.502;2022-07-23T01:14:08;16.95;;;10.20;;
32780;SDS011;19136;47.032;15.502;2022-07-23T01:16:37;10.75;;;8.95;;
32780;SDS011;19136;47.032;15.502;2022-07-23T01:19:03;12.25;;;9.20;;
32780;SDS011;19136;47.032;15.502;2022-07-23T01:21:32;11.55;;;9.00;;
32780;SDS011;19136;47.032;15.502;2022-07-23T01:23:59;10.98;;;8.90;;
32780;SDS011;19136;47.032;15.502;2022-07-23T01:26:25;15.70;;;9.95;;
32780;SDS011;19136;47.032;15.502;2022-07-23T01:28:50;12.32;;;9.38;;
32780;SDS011;19136;47.032;15.502;2022-07-23T01:31:16;12.85;;;9.32;;
32780;SDS011;19136;47.032;15.502;2022-07-23T01:33:42;15.73;;;10.38;;
32780;SDS011;19136;47.032;15.502;2022-07-23T01:36:08;16.48;;;9.82;;
32780;SDS011;19136;47.032;15.502;2022-07-23T01:38:34;12.52;;;9.40;;
32780;SDS011;19136;47.032;15.502;2022-07-23T01:40:59;12.85;;;9.20;;
32780;SDS011;19136;47.032;15.502;2022-07-23T01:43:25;14.63;;;9.52;;
32780;SDS011;19136;47.032;15.502;2022-07-23T01:45:50;14.15;;;9.70;;
32780;SDS011;19136;47.032;15.502;2022-07-23T01:48:16;13.02;;;9.48;;
32780;SDS011;19136;47.032;15.502;2022-07-23T01:50:41;14.48;;;9.82;;
32780;SDS011;19136;47.032;15.502;2022-07-23T01:53:07;12.77;;;9.15;;
32780;SDS011;19136;47.032;15.502;2022-07-23T01:55:32;16.00;;;9.85;;
32780;SDS011;19136;47.032;15.502;2022-07-23T01:57:58;16.10;;;9.70;;
32780;SDS011;19136;47.032;15.502;2022-07-23T02:00:24;16.27;;;9.30;;
32780;SDS011;19136;47.032;15.502;2022-07-23T02:02:49;12.38;;;9.68;;
32780;SDS011;19136;47.032;15.502;2022-07-23T02:05:15;16.17;;;10.40;;
32780;SDS011;19136;47.032;15.502;2022-07-23T02:07:41;14.45;;;10.30;;
32780;SDS011;19136;47.032;15.502;2022-07-23T02:10:07;13.15;;;10.10;;
32780;SDS011;19136;47.032;15.502;2022-07-23T02:12:33;12.18;;;9.38;;
32780;SDS011;19136;47.032;15.502;2022-07-23T02:14:59;17.85;;;10.27;;
32780;SDS011;19136;47.032;15.502;2022-07-23T02:17:24;14.98;;;10.13;;
32780;SDS011;19136;47.032;15.502;2022-07-23T02:19:49;15.55;;;10.63;;
32780;SDS011;19136;47.032;15.502;2022-07-23T02:22:15;13.98;;;9.57;;
32780;SDS011;19136;47.032;15.502;2022-07-23T02:24:40;17.60;;;10.38;;
32780;SDS011;19136;47.032;15.502;2022-07-23T02:27:06;19.73;;;10.50;;
32780;SDS011;19136;47.032;15.502;2022-07-23T02:29:31;16.08;;;10.45;;
32780;SDS011;19136;47.032;15.502;2022-07-23T02:31:57;15.88;;;10.20;;
32780;SDS011;19136;47.032;15.502;2022-07-23T02:34:22;18.73;;;10.27;;
32780;SDS011;19136;47.032;15.502;2022-07-23T02:36:48;12.77;;;9.82;;
32780;SDS011;19136;47.032;15.502;2022-07-23T02:39:14;15.00;;;9.57;;
32780;SDS011;19136;47.032;15.502;2022-07-23T02:41:39;15.02;;;10.00;;
32780;SDS011;19136;47.032;15.502;2022-07-23T02:44:05;12.48;;;9.77;;
32780;SDS011;19136;47.032;15.502;2022-07-23T02:46:30;16.90;;;9.57;;
32780;SDS011;19136;47.032;15.502;2022-07-23T02:48:55;17.50;;;10.07;;
32780;SDS011;19136;47.032;15.502;2022-07-23T02:51:21;17.35;;;10.05;;
32780;SDS011;19136;47.032;15.502;2022-07-23T02:53:46;17.73;;;10.35;;
32780;SDS011;19136;47.032;15.502;2022-07-23T02:56:12;14.60;;;10.02;;
32780;SDS011;19136;47.032;15.502;2022-07-23T02:58:37;12.60;;;9.85;;
32780;SDS011;19136;47.032;15.502;2022-07-23T03:01:03;16.65;;;10.27;;
32780;SDS011;19136;47.032;15.502;2022-07-23T03:03:28;16.95;;;10.63;;
32780;SDS011;19136;47.032;15.502;2022-07-23T03:05:54;14.05;;;9.68;;
32780;SDS011;19136;47.032;15.502;2022-07-23T03:08:19;18.75;;;10.18;;
32780;SDS011;19136;47.032;15.502;2022-07-23T03:10:45;16.52;;;9.57;;
32780;SDS011;19136;47.032;15.502;2022-07-23T03:13:10;14.95;;;10.13;;
32780;SDS011;19136;47.032;15.502;2022-07-23T03:15:36;15.68;;;10.35;;
32780;SDS011;19136;47.032;15.502;2022-07-23T03:18:01;12.40;;;10.48;;
32780;SDS011;19136;47.032;15.502;2022-07-23T03:20:27;15.63;;;10.13;;
32780;SDS011;19136;47.032;15.502;2022-07-23T03:22:53;14.15;;;9.98;;
32780;SDS011;19136;47.032;15.502;2022-07-23T03:25:18;19.50;;;11.00;;
32780;SDS011;19136;47.032;15.502;2022-07-23T03:27:43;14.98;;;10.18;;
32780;SDS011;19136;47.032;15.502;2022-07-23T03:30:10;13.00;;;9.75;;
32780;SDS011;19136;47.032;15.502;2022-07-23T03:32:36;16.42;;;10.73;;
32780;SDS011;19136;47.032;15.502;2022-07-23T03:35:02;21.13;;;10.88;;
32780;SDS011;19136;47.032;15.502;2022-07-23T03:37:28;14.10;;;10.48;;
32780;SDS011;19136;47.032;15.502;2022-07-23T03:39:53;13.95;;;10.63;;
32780;SDS011;19136;47.032;15.502;2022-07-23T03:42:19;15.32;;;10.18;;
32780;SDS011;19136;47.032;15.502;2022-07-23T03:44:44;15.23;;;9.80;;
32780;SDS011;19136;47.032;15.502;2022-07-23T03:47:10;12.73;;;9.65;;
32780;SDS011;19136;47.032;15.502;2022-07-23T03:49:36;15.57;;;11.18;;
32780;SDS011;19136;47.032;15.502;2022-07-23T03:52:01;16.58;;;10.65;;
32780;SDS011;19136;47.032;15.502;2022-07-23T03:54:27;14.15;;;9.70;;
32780;SDS011;19136;47.032;15.502;2022-07-23T03:56:53;15.27;;;10.15;;
32780;SDS011;19136;47.032;15.502;2022-07-23T03:59:18;18.73;;;10.55;;
32780;SDS011;19136;47.032;15.502;2022-07-23T04:01:44;13.85;;;10.07;;
32780;SDS011;19136;47.032;15.502;2022-07-23T04:04:10;13.75;;;9.70;;
32780;SDS011;19136;47.032;15.502;2022-07-23T04:06:35;19.90;;;10.57;;
32780;SDS011;19136;47.032;15.502;2022-07-23T04:09:01;15.68;;;10.70;;
32780;SDS011;19136;47.032;15.502;2022-07-23T04:11:27;15.07;;;9.95;;
32780;SDS011;19136;47.032;15.502;2022-07-23T04:13:53;18.13;;;10.13;;
32780;SDS011;19136;47.032;15.502;2022-07-23T04:16:18;16.33;;;10.40;;
32780;SDS011;19136;47.032;15.502;2022-07-23T04:18:44;23.05;;;11.23;;
32780;SDS011;19136;47.032;15.502;2022-07-23T04:21:10;17.10;;;9.43;;
32780;SDS011;19136;47.032;15.502;2022-07-23T04:23:35;16.75;;;9.85;;
32780;SDS011;19136;47.032;15.502;2022-07-23T04:26:01;16.33;;;10.85;;
32780;SDS011;19136;47.032;15.502;2022-07-23T04:28:26;14.85;;;10.52;;
32780;SDS011;19136;47.032;15.502;2022-07-23T04:30:52;18.58;;;10.43;;
32780;SDS011;19136;47.032;15.502;2022-07-23T04:33:18;12.98;;;10.63;;
32780;SDS011;19136;47.032;15.502;2022-07-23T04:35:44;20.27;;;10.98;;
32780;SDS011;19136;47.032;15.502;2022-07-23T04:38:09;18.83;;;11.25;;
32780;SDS011;19136;47.032;15.502;2022-07-23T04:40:35;18.10;;;10.93;;
32780;SDS011;19136;47.032;15.502;2022-07-23T04:43:01;17.80;;;10.57;;
32780;SDS011;19136;47.032;15.502;2022-07-23T04:45:26;13.05;;;9.80;;
32780;SDS011;19136;47.032;15.502;2022-07-23T04:47:52;15.50;;;10.45;;
32780;SDS011;19136;47.032;15.502;2022-07-23T04:50:17;13.93;;;10.10;;
32780;SDS011;19136;47.032;15.502;2022-07-23T04:52:46;14.07;;;10.25;;
32780;SDS011;19136;47.032;15.502;2022-07-23T04:55:15;13.48;;;10.07;;
32780;SDS011;19136;47.032;15.502;2022-07-23T04:57:41;15.63;;;10.50;;
32780;SDS011;19136;47.032;15.502;2022-07-23T05:00:07;14.55;;;10.15;;
32780;SDS011;19136;47.032;15.502;2022-07-23T05:02:34;13.15;;;9.85;;
32780;SDS011;19136;47.032;15.502;2022-07-23T05:04:59;12.35;;;10.30;;
32780;SDS011;19136;47.032;15.502;2022-07-23T05:07:25;12.35;;;10.27;;
32780;SDS011;19136;47.032;15.502;2022-07-23T05:09:50;15.27;;;10.60;;
32780;SDS011;19136;47.032;15.502;2022-07-23T05:12:16;14.88;;;10.48;;
32780;SDS011;19136;47.032;15.502;2022-07-23T05:14:41;15.75;;;10.88;;
32780;SDS011;19136;47.032;15.502;2022-07-23T05:17:07;12.65;;;9.52;;
32780;SDS011;19136;47.032;15.502;2022-07-23T05:19:33;13.23;;;10.38;;
32780;SDS011;19136;47.032;15.502;2022-07-23T05:21:59;16.15;;;9.80;;
32780;SDS011;19136;47.032;15.502;2022-07-23T05:24:25;20.38;;;9.73;;
32780;SDS011;19136;47.032;15.502;2022-07-23T05:26:50;16.98;;;10.48;;
32780;SDS011;19136;47.032;15.502;2022-07-23T05:29:16;14.55;;;10.55;;
32780;SDS011;19136;47.032;15.502;2022-07-23T05:31:41;17.75;;;11.38;;
32780;SDS011;19136;47.032;15.502;2022-07-23T05:34:07;16.52;;;10.77;;
32780;SDS011;19136;47.032;15.502;2022-07-23T05:36:32;13.85;;;10.35;;
32780;SDS011;19136;47.032;15.502;2022-07-23T05:38:58;15.82;;;10.85;;
32780;SDS011;19136;47.032;15.502;2022-07-23T05:41:24;14.73;;;10.52;;
32780;SDS011;19136;47.032;15.502;2022-07-23T05:43:49;15.88;;;10.80;;
32780;SDS011;19136;47.032;15.502;2022-07-23T05:46:15;12.20;;;10.90;;
32780;SDS011;19136;47.032;15.502;2022-07-23T05:48:41;18.40;;;11.25;;
32780;SDS011;19136;47.032;15.502;2022-07-23T05:51:07;17.35;;;13.15;;
32780;SDS011;19136;47.032;15.502;2022-07-23T05:53:33;16.58;;;13.10;;
32780;SDS011;19136;47.032;15.502;2022-07-23T05:55:59;17.92;;;12.93;;
32780;SDS011;19136;47.032;15.502;2022-07-23T05:58:25;17.48;;;12.35;;
32780;SDS011;19136;47.032;15.502;2022-07-23T06:00:50;19.33;;;12.38;;
32780;SDS011;19136;47.032;15.502;2022-07-23T06:03:16;16.70;;;12.52;;
32780;SDS011;19136;47.032;15.502;2022-07-23T06:05:42;18.25;;;13.43;;
32780;SDS011;19136;47.032;15.502;2022-07-23T06:08:07;17.40;;;11.88;;
32780;SDS011;19136;47.032;15.502;2022-07-23T06:10:35;21.05;;;12.05;;
32780;SDS011;19136;47.032;15.502;2022-07-23T06:13:01;14.93;;;11.38;;
32780;SDS011;19136;47.032;15.502;2022-07-23T06:15:27;14.70;;;11.52;;
32780;SDS011;19136;47.032;15.502;2022-07-23T06:17:52;17.00;;;12.00;;
32780;SDS011;19136;47.032;15.502;2022-07-23T06:20:18;15.80;;;11.32;;
32780;SDS011;19136;47.032;15.502;2022-07-23T06:22:47;17.67;;;11.10;;
32780;SDS011;19136;47.032;15.502;2022-07-23T06:25:13;17.27;;;10.77;;
32780;SDS011;19136;47.032;15.502;2022-07-23T06:27:38;22.58;;;11.40;;
32780;SDS011;19136;47.032;15.502;2022-07-23T06:30:04;15.18;;;10.52;;
32780;SDS011;19136;47.032;15.502;2022-07-23T06:32:30;11.82;;;10.32;;
32780;SDS011;19136;47.032;15.502;2022-07-23T06:34:56;15.80;;;11.68;;
32780;SDS011;19136;47.032;15.502;2022-07-23T06:37:21;22.40;;;12.05;;
32780;SDS011;19136;47.032;15.502;2022-07-23T06:39:47;12.95;;;10.43;;
32780;SDS011;19136;47.032;15.502;2022-07-23T06:42:13;14.32;;;10.85;;
32780;SDS011;19136;47.032;15.502;2022-07-23T06:44:38;12.00;;;10.63;;
32780;SDS011;19136;47.032;15.502;2022-07-23T06:47:04;15.45;;;11.18;;
32780;SDS011;19136;47.032;15.502;2022-07-23T06:49:29;16.42;;;10.05;;
32780;SDS011;19136;47.032;15.502;2022-07-23T06:51:55;18.75;;;10.00;;
32780;SDS011;19136;47.032;15.502;2022-07-23T06:54:20;15.30;;;9.80;;
32780;SDS011;19136;47.032;15.502;2022-07-23T06:56:46;12.50;;;10.38;;
32780;SDS011;19136;47.032;15.502;2022-07-23T06:59:11;17.08;;;10.30;;
32780;SDS011;19136;47.032;15.502;2022-07-23T07:01:37;11.63;;;9.65;;
32780;SDS011;19136;47.032;15.502;2022-07-23T07:04:03;15.73;;;10.20;;
32780;SDS011;19136;47.032;15.502;2022-07-23T07:06:28;14.23;;;10.30;;
32780;SDS011;19136;47.032;15.502;2022-07-23T07:08:54;13.10;;;9.57;;
32780;SDS011;19136;47.032;15.502;2022-07-23T07:11:20;14.13;;;9.95;;
32780;SDS011;19136;47.032;15.502;2022-07-23T07:13:46;13.38;;;10.00;;
32780;SDS011;19136;47.032;15.502;2022-07-23T07:16:11;10.98;;;9.75;;
32780;SDS011;19136;47.032;15.502;2022-07-23T07:18:37;14.23;;;9.63;;
32780;SDS011;19136;47.032;15.502;2022-07-23T07:21:03;11.65;;;9.73;;
32780;SDS011;19136;47.032;15.502;2022-07-23T07:23:28;14.82;;;10.63;;
32780;SDS011;19136;47.032;15.502;2022-07-23T07:25:54;14.13;;;9.63;;
32780;SDS011;19136;47.032;15.502;2022-07-23T07:28:19;14.98;;;10.07;;
32780;SDS011;19136;47.032;15.502;2022-07-23T07:30:45;13.55;;;9.98;;
32780;SDS011;19136;47.032;15.502;2022-07-23T07:33:10;14.48;;;10.20;;
32780;SDS011;19136;47.032;15.502;2022-07-23T07:35:36;13.45;;;9.80;;
32780;SDS011;19136;47.032;15.502;2022-07-23T07:38:01;11.25;;;9.57;;
32780;SDS011;19136;47.032;15.502;2022-07-23T07:40:27;12.23;;;9.75;;
32780;SDS011;19136;47.032;15.502;2022-07-23T07:42:53;18.67;;;9.55;;
32780;SDS011;19136;47.032;15.502;2022-07-23T07:45:19;16.67;;;9.52;;
32780;SDS011;19136;47.032;15.502;2022-07-23T07:47:45;16.00;;;9.60;;
32780;SDS011;19136;47.032;15.502;2022-07-23T07:50:11;11.93;;;9.90;;
32780;SDS011;19136;47.032;15.502;2022-07-23T07:52:36;13.15;;;10.10;;
32780;SDS011;19136;47.032;15.502;2022-07-23T07:55:03;12.13;;;9.40;;
32780;SDS011;19136;47.032;15.502;2022-07-23T07:57:29;13.70;;;10.07;;
32780;SDS011;19136;47.032;15.502;2022-07-23T07:59:54;11.65;;;9.32;;
32780;SDS011;19136;47.032;15.502;2022-07-23T08:02:20;18.15;;;10.00;;
32780;SDS011;19136;47.032;15.502;2022-07-23T08:04:48;15.57;;;9.27;;
32780;SDS011;19136;47.032;15.502;2022-07-23T08:07:14;14.32;;;9.85;;
32780;SDS011;19136;47.032;15.502;2022-07-23T08:09:40;11.82;;;9.43;;
32780;SDS011;19136;47.032;15.502;2022-07-23T08:12:05;12.68;;;9.77;;
32780;SDS011;19136;47.032;15.502;2022-07-23T08:14:31;11.70;;;9.45;;
32780;SDS011;19136;47.032;15.502;2022-07-23T08:16:57;14.50;;;9.82;;
32780;SDS011;19136;47.032;15.502;2022-07-23T08:19:23;14.00;;;9.43;;
32780;SDS011;19136;47.032;15.502;2022-07-23T08:21:48;13.13;;;8.90;;
32780;SDS011;19136;47.032;15.502;2022-07-23T08:24:15;11.07;;;9.02;;
32780;SDS011;19136;47.032;15.502;2022-07-23T08:26:41;12.15;;;9.32;;
32780;SDS011;19136;47.032;15.502;2022-07-23T08:29:06;11.73;;;9.18;;
32780;SDS011;19136;47.032;15.502;2022-07-23T08:31:32;13.30;;;8.75;;
32780;SDS011;19136;47.032;15.502;2022-07-23T08:34:00;15.43;;;9.45;;
32780;SDS011;19136;47.032;15.502;2022-07-23T08:36:27;13.73;;;8.93;;
32780;SDS011;19136;47.032;15.502;2022-07-23T08:38:54;14.40;;;9.52;;
32780;SDS011;19136;47.032;15.502;2022-07-23T08:41:20;11.02;;;9.23;;
32780;SDS011;19136;47.032;15.502;2022-07-23T08:43:46;10.90;;;9.60;;
32780;SDS011;19136;47.032;15.502;2022-07-23T08:46:11;14.40;;;9.43;;
32780;SDS011;19136;47.032;15.502;2022-07-23T08:48:40;10.15;;;8.35;;
32780;SDS011;19136;47.032;15.502;2022-07-23T08:51:06;13.13;;;8.68;;
32780;SDS011;19136;47.032;15.502;2022-07-23T08:53:32;14.00;;;8.95;;
32780;SDS011;19136;47.032;15.502;2022-07-23T08:56:02;11.85;;;8.70;;
32780;SDS011;19136;47.032;15.502;2022-07-23T08:58:30;11.20;;;8.88;;
32780;SDS011;19136;47.032;15.502;2022-07-23T09:00:56;9.65;;;8.25;;
32780;SDS011;19136;47.032;15.502;2022-07-23T09:03:23;13.27;;;8.90;;
32780;SDS011;19136;47.032;15.502;2022-07-23T09:05:51;12.65;;;9.48;;
32780;SDS011;19136;47.032;15.502;2022-07-23T09:08:21;15.43;;;9.13;;
32780;SDS011;19136;47.032;15.502;2022-07-23T09:10:49;11.05;;;9.05;;
32780;SDS011;19136;47.032;15.502;2022-07-23T09:15:52;16.75;;;9.82;;
32780;SDS011;19136;47.032;15.502;2022-07-23T09:18:18;14.27;;;8.95;;
32780;SDS011;19136;47.032;15.502;2022-07-23T09:20:44;13.40;;;9.07;;
32780;SDS011;19136;47.032;15.502;2022-07-23T09:23:10;11.93;;;9.00;;
32780;SDS011;19136;47.032;15.502;2022-07-23T09:25:35;12.77;;;9.02;;
32780;SDS011;19136;47.032;15.502;2022-07-23T09:28:01;10.98;;;8.32;;
32780;SDS011;19136;47.032;15.502;2022-07-23T09:30:31;11.57;;;9.00;;
32780;SDS011;19136;47.032;15.502;2022-07-23T09:33:04;12.93;;;7.90;;
32780;SDS011;19136;47.032;15.502;2022-07-23T09:35:44;11.57;;;9.02;;
32780;SDS011;19136;47.032;15.502;2022-07-23T09:38:11;11.10;;;8.00;;
32780;SDS011;19136;47.032;15.502;2022-07-23T09:40:37;10.90;;;8.23;;
32780;SDS011;19136;47.032;15.502;2022-07-23T09:43:02;9.65;;;8.27;;
32780;SDS011;19136;47.032;15.502;2022-07-23T09:45:28;9.90;;;8.43;;
32780;SDS011;19136;47.032;15.502;2022-07-23T09:48:09;12.02;;;8.18;;
32780;SDS011;19136;47.032;15.502;2022-07-23T09:50:39;11.75;;;7.82;;
32780;SDS011;19136;47.032;15.502;2022-07-23T09:53:06;14.80;;;8.10;;
32780;SDS011;19136;47.032;15.502;2022-07-23T09:55:32;12.32;;;8.15;;
32780;SDS011;19136;47.032;15.502;2022-07-23T09:58:02;8.95;;;7.22;;
32780;SDS011;19136;47.032;15.502;2022-07-23T10:00:29;8.07;;;6.50;;
32780;SDS011;19136;47.032;15.502;2022-07-23T10:02:57;10.50;;;7.75;;
32780;SDS011;19136;47.032;15.502;2022-07-23T10:05:23;8.70;;;7.03;;
32780;SDS011;19136;47.032;15.502;2022-07-23T10:07:49;12.27;;;6.93;;
32780;SDS011;19136;47.032;15.502;2022-07-23T10:10:16;9.07;;;6.80;;
32780;SDS011;19136;47.032;15.502;2022-07-23T10:12:45;13.35;;;7.15;;
32780;SDS011;19136;47.032;15.502;2022-07-23T10:15:34;9.85;;;6.85;;
32780;SDS011;19136;47.032;15.502;2022-07-23T10:18:00;14.40;;;6.60;;
32780;SDS011;19136;47.032;15.502;2022-07-23T10:20:26;10.80;;;6.63;;
32780;SDS011;19136;47.032;15.502;2022-07-23T10:22:59;10.68;;;7.10;;
32780;SDS011;19136;47.032;15.502;2022-07-23T10:25:36;7.70;;;6.70;;
32780;SDS011;19136;47.032;15.502;2022-07-23T10:33:59;7.78;;;6.38;;
32780;SDS011;19136;47.032;15.502;2022-07-23T10:42:07;11.18;;;6.70;;
32780;SDS011;19136;47.032;15.502;2022-07-23T10:44:43;11.77;;;6.47;;
32780;SDS011;19136;47.032;15.502;2022-07-23T10:47:11;12.63;;;6.80;;
32780;SDS011;19136;47.032;15.502;2022-07-23T10:49:42;9.85;;;6.63;;
32780;SDS011;19136;47.032;15.502;2022-07-23T10:54:49;8.60;;;7.00;;
32780;SDS011;19136;47.032;15.502;2022-07-23T10:57:21;9.48;;;6.90;;
32780;SDS011;19136;47.032;15.502;2022-07-23T11:02:29;12.98;;;7.43;;
32780;SDS011;19136;47.032;15.502;2022-07-23T11:04:59;8.57;;;6.97;;
32780;SDS011;19136;47.032;15.502;2022-07-23T11:07:25;9.63;;;7.40;;
32780;SDS011;19136;47.032;15.502;2022-07-23T11:09:51;8.05;;;6.75;;
32780;SDS011;19136;47.032;15.502;2022-07-23T11:20:17;10.00;;;7.13;;
32780;SDS011;19136;47.032;15.502;2022-07-23T11:25:13;12.02;;;6.47;;
32780;SDS011;19136;47.032;15.502;2022-07-23T11:27:53;9.10;;;6.47;;
32780;SDS011;19136;47.032;15.502;2022-07-23T11:32:51;7.55;;;5.97;;
32780;SDS011;19136;47.032;15.502;2022-07-23T11:35:21;12.63;;;6.93;;
32780;SDS011;19136;47.032;15.502;2022-07-23T11:37:52;13.48;;;6.82;;
32780;SDS011;19136;47.032;15.502;2022-07-23T11:40:24;11.23;;;6.45;;
32780;SDS011;19136;47.032;15.502;2022-07-23T11:42:52;8.02;;;7.07;;
32780;SDS011;19136;47.032;15.502;2022-07-23T11:45:19;9.40;;;6.63;;
32780;SDS011;19136;47.032;15.502;2022-07-23T11:47:44;7.72;;;6.50;;
32780;SDS011;19136;47.032;15.502;2022-07-23T11:50:10;12.02;;;6.75;;
32780;SDS011;19136;47.032;15.502;2022-07-23T11:52:35;8.48;;;6.50;;
32780;SDS011;19136;47.032;15.502;2022-07-23T11:55:05;9.88;;;7.25;;
32780;SDS011;19136;47.032;15.502;2022-07-23T11:57:33;8.57;;;7.25;;
32780;SDS011;19136;47.032;15.502;2022-07-23T12:00:21;8.30;;;6.65;;
32780;SDS011;19136;47.032;15.502;2022-07-23T12:02:53;8.88;;;7.05;;
32780;SDS011;19136;47.032;15.502;2022-07-23T12:05:30;15.43;;;7.18;;
32780;SDS011;19136;47.032;15.502;2022-07-23T12:07:58;8.65;;;7.45;;
32780;SDS011;19136;47.032;15.502;2022-07-23T12:10:26;10.43;;;7.35;;
32780;SDS011;19136;47.032;15.502;2022-07-23T12:12:54;9.30;;;7.57;;
32780;SDS011;19136;47.032;15.502;2022-07-23T12:15:23;11.88;;;7.03;;
32780;SDS011;19136;47.032;15.502;2022-07-23T12:17:55;11.55;;;6.13;;
32780;SDS011;19136;47.032;15.502;2022-07-23T12:20:22;11.45;;;6.65;;
32780;SDS011;19136;47.032;15.502;2022-07-23T12:22:50;10.13;;;7.60;;
32780;SDS011;19136;47.032;15.502;2022-07-23T12:25:28;10.50;;;7.70;;
32780;SDS011;19136;47.032;15.502;2022-07-23T12:30:38;12.73;;;7.63;;
32780;SDS011;19136;47.032;15.502;2022-07-23T12:33:06;11.60;;;8.02;;
32780;SDS011;19136;47.032;15.502;2022-07-23T12:35:42;8.60;;;7.32;;
32780;SDS011;19136;47.032;15.502;2022-07-23T12:38:11;10.32;;;7.82;;
32780;SDS011;19136;47.032;15.502;2022-07-23T12:40:43;10.90;;;7.93;;
32780;SDS011;19136;47.032;15.502;2022-07-23T12:43:31;10.90;;;7.32;;
32780;SDS011;19136;47.032;15.502;2022-07-23T12:46:10;13.60;;;6.80;;
32780;SDS011;19136;47.032;15.502;2022-07-23T12:48:37;8.30;;;7.38;;
32780;SDS011;19136;47.032;15.502;2022-07-23T12:53:53;8.05;;;7.25;;
32780;SDS011;19136;47.032;15.502;2022-07-23T12:56:21;9.57;;;7.55;;
32780;SDS011;19136;47.032;15.502;2022-07-23T12:58:55;10.88;;;7.00;;
32780;SDS011;19136;47.032;15.502;2022-07-23T13:06:44;12.20;;;7.65;;
32780;SDS011;19136;47.032;15.502;2022-07-23T13:09:12;13.50;;;6.80;;
32780;SDS011;19136;47.032;15.502;2022-07-23T13:11:40;8.57;;;6.82;;
32780;SDS011;19136;47.032;15.502;2022-07-23T13:14:06;9.40;;;6.40;;
32780;SDS011;19136;47.032;15.502;2022-07-23T13:16:32;7.28;;;6.15;;
32780;SDS011;19136;47.032;15.502;2022-07-23T13:18:58;7.72;;;6.20;;
32780;SDS011;19136;47.032;15.502;2022-07-23T13:21:25;10.25;;;6.88;;
32780;SDS011;19136;47.032;15.502;2022-07-23T13:23:52;8.80;;;6.60;;
32780;SDS011;19136;47.032;15.502;2022-07-23T13:26:19;9.00;;;6.95;;
32780;SDS011;19136;47.032;15.502;2022-07-23T13:28:45;9.70;;;7.35;;
32780;SDS011;19136;47.032;15.502;2022-07-23T13:31:10;7.32;;;6.63;;
32780;SDS011;19136;47.032;15.502;2022-07-23T13:33:36;10.00;;;7.43;;
32780;SDS011;19136;47.032;15.502;2022-07-23T13:36:01;11.82;;;6.80;;
32780;SDS011;19136;47.032;15.502;2022-07-23T13:38:28;9.25;;;7.60;;
32780;SDS011;19136;47.032;15.502;2022-07-23T13:40:54;9.40;;;7.13;;
32780;SDS011;19136;47.032;15.502;2022-07-23T13:43:21;8.48;;;6.65;;
32780;SDS011;19136;47.032;15.502;2022-07-23T13:45:49;9.30;;;7.07;;
32780;SDS011;19136;47.032;15.502;2022-07-23T13:48:15;10.02;;;7.20;;
32780;SDS011;19136;47.032;15.502;2022-07-23T13:50:41;10.38;;;7.50;;
32780;SDS011;19136;47.032;15.502;2022-07-23T13:53:08;8.75;;;7.13;;
32780;SDS011;19136;47.032;15.502;2022-07-23T13:55:36;8.18;;;7.10;;
32780;SDS011;19136;47.032;15.502;2022-07-23T13:58:02;8.30;;;7.28;;
32780;SDS011;19136;47.032;15.502;2022-07-23T14:00:29;10.75;;;7.43;;
32780;SDS011;19136;47.032;15.502;2022-07-23T14:02:55;10.40;;;8.15;;
32780;SDS011;19136;47.032;15.502;2022-07-23T14:05:22;9.10;;;7.78;;
32780;SDS011;19136;47.032;15.502;2022-07-23T14:07:47;8.88;;;7.15;;
32780;SDS011;19136;47.032;15.502;2022-07-23T14:10:15;9.27;;;7.28;;
32780;SDS011;19136;47.032;15.502;2022-07-23T14:12:42;8.88;;;7.63;;
32780;SDS011;19136;47.032;15.502;2022-07-23T14:15:08;8.82;;;7.13;;
32780;SDS011;19136;47.032;15.502;2022-07-23T14:17:35;12.52;;;7.30;;
32780;SDS011;19136;47.032;15.502;2022-07-23T14:20:02;9.73;;;7.32;;
32780;SDS011;19136;47.032;15.502;2022-07-23T14:22:28;11.30;;;7.43;;
32780;SDS011;19136;47.032;15.502;2022-07-23T14:24:53;11.80;;;7.20;;
32780;SDS011;19136;47.032;15.502;2022-07-23T14:27:19;11.35;;;7.22;;
32780;SDS011;19136;47.032;15.502;2022-07-23T14:29:45;12.57;;;6.20;;
32780;SDS011;19136;47.032;15.502;2022-07-23T14:32:10;10.88;;;6.32;;
32780;SDS011;19136;47.032;15.502;2022-07-23T14:34:36;8.30;;;6.80;;
32780;SDS011;19136;47.032;15.502;2022-07-23T14:37:02;8.65;;;7.40;;
32780;SDS011;19136;47.032;15.502;2022-07-23T14:39:27;8.73;;;7.28;;
32780;SDS011;19136;47.032;15.502;2022-07-23T14:41:53;9.98;;;7.70;;
32780;SDS011;19136;47.032;15.502;2022-07-23T14:44:19;8.52;;;6.68;;
32780;SDS011;19136;47.032;15.502;2022-07-23T14:46:44;7.97;;;7.22;;
32780;SDS011;19136;47.032;15.502;2022-07-23T14:49:10;9.57;;;7.45;;
32780;SDS011;19136;47.032;15.502;2022-07-23T14:51:36;8.93;;;6.70;;
32780;SDS011;19136;47.032;15.502;2022-07-23T14:54:02;7.22;;;6.47;;
32780;SDS011;19136;47.032;15.502;2022-07-23T14:56:28;9.68;;;6.70;;
32780;SDS011;19136;47.032;15.502;2022-07-23T14:58:54;11.18;;;6.43;;
32780;SDS011;19136;47.032;15.502;2022-07-23T15:01:21;7.43;;;6.65;;